Portada
METAR-TAF:

METAR-TAF

Aeroports :

Abu Dhabi, Emirats Àrabs Units

latitud: 24-26N, longitud: 054-28E, altitud: 5 m

Observació

L'informe es va fer fa 13 minuts, a les 22:00 UTC
Vent 4 kt del Oest/Sud-Oest, variant entre Sud-Oest i Oest/Nord-Oest
Temperatura 34°C
Humitat 56%
Pressió 994 hPa
Visibilitat 10 km o més
sense núvols per sota de 1500 mi sense presència de cumulonimbus.

METAR: OMAD 152200Z 25004KT 220V300 CAVOK 34/24 Q0994 NOSIG

Hora: 02:13 (22:13 UTC)

Pronòstic

L'informe es va fer fa 5 hores i 13 minuts, a les 17:00 UTC
Pronòstic vàlid del 15 a les 18 UTC al 17 a les 00 UTC
Vent 5 kt del Sud/Sud-Oest
Visibilitat: 8000 m
Evolucionant progressivament
l' 16 a les 04 UTC al 16 a les 06 UTC
Vent 12 kt del Oest
Evolucionant progressivament
l' 16 a les 17 UTC al 16 a les 19 UTC
Vent 5 kt del Sud/Sud-Oest

TAF: OMAD 151700Z 1518/1700 21005KT 8000 NSC BECMG 1604/1606 28012KT BECMG 1617/1619 20005KT

Observacions i pronòstics meteorològics de més de 4000 aeroports (METAR i TAF).

Les estacions disponibles són els punts grocs i vermells al mapa.

Posi el ratolí al punt desitjat per veure el nom de l'estació.

Feu clic per veure les observacions i els pronòstics meteorològics.

Per canviar el mapa: feu clic els botons verds amb una creu de color negre per apropar; al botó verd amb un guió per allunyar la imatge; o en les fletxes verdes per a mapes adjacents.


METAR-TAF: